sensor_id;sensor_type;location;lat;lon;timestamp;temperature;humidity
12481;DHT22;6305;48.398;11.762;2023-05-02T00:01:20;8.70;99.90
12481;DHT22;6305;48.398;11.762;2023-05-02T00:03:47;8.60;99.90
12481;DHT22;6305;48.398;11.762;2023-05-02T00:06:14;8.50;99.90
12481;DHT22;6305;48.398;11.762;2023-05-02T00:08:41;8.50;99.90
12481;DHT22;6305;48.398;11.762;2023-05-02T00:11:08;8.40;99.90
12481;DHT22;6305;48.398;11.762;2023-05-02T00:13:35;8.40;99.90
12481;DHT22;6305;48.398;11.762;2023-05-02T00:16:02;8.40;99.90
12481;DHT22;6305;48.398;11.762;2023-05-02T00:18:31;8.30;99.90
12481;DHT22;6305;48.398;11.762;2023-05-02T00:20:58;8.30;99.90
12481;DHT22;6305;48.398;11.762;2023-05-02T00:23:25;8.30;99.90
12481;DHT22;6305;48.398;11.762;2023-05-02T00:25:52;8.20;99.90
12481;DHT22;6305;48.398;11.762;2023-05-02T00:28:19;8.20;99.90
12481;DHT22;6305;48.398;11.762;2023-05-02T00:30:46;8.20;99.90
12481;DHT22;6305;48.398;11.762;2023-05-02T00:33:13;8.10;99.90
12481;DHT22;6305;48.398;11.762;2023-05-02T00:35:41;8.10;99.90
12481;DHT22;6305;48.398;11.762;2023-05-02T00:38:08;8.10;99.90
12481;DHT22;6305;48.398;11.762;2023-05-02T00:40:42;8.00;99.90
12481;DHT22;6305;48.398;11.762;2023-05-02T00:43:10;8.00;99.90
12481;DHT22;6305;48.398;11.762;2023-05-02T00:45:37;7.90;99.90
12481;DHT22;6305;48.398;11.762;2023-05-02T00:48:07;7.90;99.90
12481;DHT22;6305;48.398;11.762;2023-05-02T00:50:36;7.90;99.90
12481;DHT22;6305;48.398;11.762;2023-05-02T00:53:07;7.80;99.90
12481;DHT22;6305;48.398;11.762;2023-05-02T00:55:34;7.90;99.90
12481;DHT22;6305;48.398;11.762;2023-05-02T00:58:04;7.80;99.90
12481;DHT22;6305;48.398;11.762;2023-05-02T01:00:39;7.80;99.90
12481;DHT22;6305;48.398;11.762;2023-05-02T01:03:14;7.80;99.90
12481;DHT22;6305;48.398;11.762;2023-05-02T01:05:48;7.80;99.90
12481;DHT22;6305;48.398;11.762;2023-05-02T01:08:24;7.80;99.90
12481;DHT22;6305;48.398;11.762;2023-05-02T01:11:00;7.80;99.90
12481;DHT22;6305;48.398;11.762;2023-05-02T01:13:31;7.70;99.90
12481;DHT22;6305;48.398;11.762;2023-05-02T01:16:00;7.70;99.90
12481;DHT22;6305;48.398;11.762;2023-05-02T01:18:31;7.60;99.90
12481;DHT22;6305;48.398;11.762;2023-05-02T01:21:03;7.60;99.90
12481;DHT22;6305;48.398;11.762;2023-05-02T01:23:40;7.50;99.90
12481;DHT22;6305;48.398;11.762;2023-05-02T01:26:28;7.50;99.90
12481;DHT22;6305;48.398;11.762;2023-05-02T01:29:02;7.50;99.90
12481;DHT22;6305;48.398;11.762;2023-05-02T01:31:33;7.50;99.90
12481;DHT22;6305;48.398;11.762;2023-05-02T01:34:03;7.50;99.90
12481;DHT22;6305;48.398;11.762;2023-05-02T01:36:31;7.50;99.90
12481;DHT22;6305;48.398;11.762;2023-05-02T01:39:01;7.50;99.90
12481;DHT22;6305;48.398;11.762;2023-05-02T01:41:30;7.50;99.90
12481;DHT22;6305;48.398;11.762;2023-05-02T01:44:01;7.50;99.90
12481;DHT22;6305;48.398;11.762;2023-05-02T01:46:31;7.60;99.90
12481;DHT22;6305;48.398;11.762;2023-05-02T01:49:02;7.60;99.90
12481;DHT22;6305;48.398;11.762;2023-05-02T01:51:31;7.60;99.90
12481;DHT22;6305;48.398;11.762;2023-05-02T01:54:01;7.60;99.90
12481;DHT22;6305;48.398;11.762;2023-05-02T01:56:32;7.60;99.90
12481;DHT22;6305;48.398;11.762;2023-05-02T01:59:05;7.60;99.90
12481;DHT22;6305;48.398;11.762;2023-05-02T02:01:34;7.60;99.90
12481;DHT22;6305;48.398;11.762;2023-05-02T02:04:03;7.60;99.90
12481;DHT22;6305;48.398;11.762;2023-05-02T02:06:31;7.60;99.90
12481;DHT22;6305;48.398;11.762;2023-05-02T02:08:58;7.50;99.90
12481;DHT22;6305;48.398;11.762;2023-05-02T02:11:28;7.50;99.90
12481;DHT22;6305;48.398;11.762;2023-05-02T02:14:05;7.50;99.90
12481;DHT22;6305;48.398;11.762;2023-05-02T02:16:36;7.50;99.90
12481;DHT22;6305;48.398;11.762;2023-05-02T02:19:06;7.50;99.90
12481;DHT22;6305;48.398;11.762;2023-05-02T02:21:36;7.50;99.90
12481;DHT22;6305;48.398;11.762;2023-05-02T02:24:05;7.50;99.90
12481;DHT22;6305;48.398;11.762;2023-05-02T02:26:33;7.50;99.90
12481;DHT22;6305;48.398;11.762;2023-05-02T02:29:00;7.50;99.90
12481;DHT22;6305;48.398;11.762;2023-05-02T02:31:32;7.50;99.90
12481;DHT22;6305;48.398;11.762;2023-05-02T02:34:01;7.50;99.90
12481;DHT22;6305;48.398;11.762;2023-05-02T02:36:32;7.50;99.90
12481;DHT22;6305;48.398;11.762;2023-05-02T02:39:11;7.50;99.90
12481;DHT22;6305;48.398;11.762;2023-05-02T02:41:47;7.40;99.90
12481;DHT22;6305;48.398;11.762;2023-05-02T02:44:25;7.40;99.90
12481;DHT22;6305;48.398;11.762;2023-05-02T02:47:01;7.40;99.90
12481;DHT22;6305;48.398;11.762;2023-05-02T02:49:42;7.40;99.90
12481;DHT22;6305;48.398;11.762;2023-05-02T02:52:17;7.40;99.90
12481;DHT22;6305;48.398;11.762;2023-05-02T02:54:49;7.30;99.90
12481;DHT22;6305;48.398;11.762;2023-05-02T02:57:23;7.30;99.90
12481;DHT22;6305;48.398;11.762;2023-05-02T02:59:58;7.40;99.90
12481;DHT22;6305;48.398;11.762;2023-05-02T03:02:31;7.40;99.90
12481;DHT22;6305;48.398;11.762;2023-05-02T03:05:00;7.40;99.90
12481;DHT22;6305;48.398;11.762;2023-05-02T03:07:28;7.50;99.90
12481;DHT22;6305;48.398;11.762;2023-05-02T03:09:57;7.50;99.90
12481;DHT22;6305;48.398;11.762;2023-05-02T03:12:24;7.40;99.90
12481;DHT22;6305;48.398;11.762;2023-05-02T03:14:51;7.40;99.90
12481;DHT22;6305;48.398;11.762;2023-05-02T03:17:20;7.40;99.90
12481;DHT22;6305;48.398;11.762;2023-05-02T03:19:49;7.40;99.90
12481;DHT22;6305;48.398;11.762;2023-05-02T03:22:16;7.40;99.90
12481;DHT22;6305;48.398;11.762;2023-05-02T03:24:43;7.30;99.90
12481;DHT22;6305;48.398;11.762;2023-05-02T03:27:12;7.30;99.90
12481;DHT22;6305;48.398;11.762;2023-05-02T03:29:41;7.30;99.90
12481;DHT22;6305;48.398;11.762;2023-05-02T03:32:10;7.20;99.90
12481;DHT22;6305;48.398;11.762;2023-05-02T03:34:40;7.10;99.90
12481;DHT22;6305;48.398;11.762;2023-05-02T03:37:09;7.10;99.90
12481;DHT22;6305;48.398;11.762;2023-05-02T03:39:36;7.00;99.90
12481;DHT22;6305;48.398;11.762;2023-05-02T03:42:04;7.00;99.90
12481;DHT22;6305;48.398;11.762;2023-05-02T03:44:31;7.00;99.90
12481;DHT22;6305;48.398;11.762;2023-05-02T03:46:58;6.90;99.90
12481;DHT22;6305;48.398;11.762;2023-05-02T03:49:25;6.90;99.90
12481;DHT22;6305;48.398;11.762;2023-05-02T03:51:53;6.80;99.90
12481;DHT22;6305;48.398;11.762;2023-05-02T03:54:28;6.80;99.90
12481;DHT22;6305;48.398;11.762;2023-05-02T03:56:58;6.90;99.90
12481;DHT22;6305;48.398;11.762;2023-05-02T03:59:31;6.90;99.90
12481;DHT22;6305;48.398;11.762;2023-05-02T04:02:00;6.90;99.90
12481;DHT22;6305;48.398;11.762;2023-05-02T04:04:37;6.90;99.90
12481;DHT22;6305;48.398;11.762;2023-05-02T04:07:07;7.00;99.90
12481;DHT22;6305;48.398;11.762;2023-05-02T04:09:41;7.00;99.90
12481;DHT22;6305;48.398;11.762;2023-05-02T04:12:10;7.00;99.90
12481;DHT22;6305;48.398;11.762;2023-05-02T04:14:41;7.00;99.90
12481;DHT22;6305;48.398;11.762;2023-05-02T04:17:09;7.00;99.90
12481;DHT22;6305;48.398;11.762;2023-05-02T04:19:43;7.00;99.90
12481;DHT22;6305;48.398;11.762;2023-05-02T04:22:11;6.90;99.90
12481;DHT22;6305;48.398;11.762;2023-05-02T04:24:44;7.00;99.90
12481;DHT22;6305;48.398;11.762;2023-05-02T04:27:12;7.00;99.90
12481;DHT22;6305;48.398;11.762;2023-05-02T04:29:39;7.10;99.90
12481;DHT22;6305;48.398;11.762;2023-05-02T04:32:07;7.20;99.90
12481;DHT22;6305;48.398;11.762;2023-05-02T04:34:34;7.30;99.90
12481;DHT22;6305;48.398;11.762;2023-05-02T04:37:02;7.50;99.90
12481;DHT22;6305;48.398;11.762;2023-05-02T04:39:31;7.50;99.90
12481;DHT22;6305;48.398;11.762;2023-05-02T04:42:03;7.60;99.90
12481;DHT22;6305;48.398;11.762;2023-05-02T04:44:34;7.70;99.90
12481;DHT22;6305;48.398;11.762;2023-05-02T04:47:01;7.80;99.90
12481;DHT22;6305;48.398;11.762;2023-05-02T04:49:29;7.90;99.90
12481;DHT22;6305;48.398;11.762;2023-05-02T04:51:56;8.00;99.90
12481;DHT22;6305;48.398;11.762;2023-05-02T04:54:24;8.20;99.90
12481;DHT22;6305;48.398;11.762;2023-05-02T04:56:51;8.20;99.90
12481;DHT22;6305;48.398;11.762;2023-05-02T04:59:21;8.30;99.90
12481;DHT22;6305;48.398;11.762;2023-05-02T05:01:48;8.40;99.90
12481;DHT22;6305;48.398;11.762;2023-05-02T05:04:15;8.50;99.90
12481;DHT22;6305;48.398;11.762;2023-05-02T05:06:42;8.50;99.90
12481;DHT22;6305;48.398;11.762;2023-05-02T05:09:09;8.60;99.90
12481;DHT22;6305;48.398;11.762;2023-05-02T05:11:37;8.70;99.90
12481;DHT22;6305;48.398;11.762;2023-05-02T05:14:05;8.80;99.90
12481;DHT22;6305;48.398;11.762;2023-05-02T05:16:36;8.80;99.90
12481;DHT22;6305;48.398;11.762;2023-05-02T05:19:03;9.00;99.90
12481;DHT22;6305;48.398;11.762;2023-05-02T05:21:30;9.10;99.90
12481;DHT22;6305;48.398;11.762;2023-05-02T05:23:59;9.20;99.90
12481;DHT22;6305;48.398;11.762;2023-05-02T05:26:28;9.30;99.90
12481;DHT22;6305;48.398;11.762;2023-05-02T05:28:55;9.40;99.90
12481;DHT22;6305;48.398;11.762;2023-05-02T05:31:25;9.50;99.90
12481;DHT22;6305;48.398;11.762;2023-05-02T05:33:57;9.60;99.90
12481;DHT22;6305;48.398;11.762;2023-05-02T05:36:25;9.70;99.90
12481;DHT22;6305;48.398;11.762;2023-05-02T05:38:52;9.80;99.90
12481;DHT22;6305;48.398;11.762;2023-05-02T05:41:19;9.90;99.90
12481;DHT22;6305;48.398;11.762;2023-05-02T05:43:52;10.00;99.90
12481;DHT22;6305;48.398;11.762;2023-05-02T05:46:23;10.10;99.90
12481;DHT22;6305;48.398;11.762;2023-05-02T05:48:50;10.10;99.90
12481;DHT22;6305;48.398;11.762;2023-05-02T05:51:19;10.20;99.90
12481;DHT22;6305;48.398;11.762;2023-05-02T05:53:46;10.30;99.90
12481;DHT22;6305;48.398;11.762;2023-05-02T05:56:13;10.20;99.90
12481;DHT22;6305;48.398;11.762;2023-05-02T05:58:46;10.30;99.90
12481;DHT22;6305;48.398;11.762;2023-05-02T06:01:14;10.40;99.90
12481;DHT22;6305;48.398;11.762;2023-05-02T06:03:41;10.70;99.90
12481;DHT22;6305;48.398;11.762;2023-05-02T06:06:08;10.90;99.90
12481;DHT22;6305;48.398;11.762;2023-05-02T06:08:36;11.00;99.90
12481;DHT22;6305;48.398;11.762;2023-05-02T06:11:07;11.30;99.90
12481;DHT22;6305;48.398;11.762;2023-05-02T06:13:34;11.40;99.90
12481;DHT22;6305;48.398;11.762;2023-05-02T06:16:02;11.40;99.90
12481;DHT22;6305;48.398;11.762;2023-05-02T06:18:29;11.50;99.90
12481;DHT22;6305;48.398;11.762;2023-05-02T06:20:56;11.70;99.90
12481;DHT22;6305;48.398;11.762;2023-05-02T06:23:23;11.80;99.90
12481;DHT22;6305;48.398;11.762;2023-05-02T06:25:52;11.90;99.90
12481;DHT22;6305;48.398;11.762;2023-05-02T06:28:20;12.00;99.90
12481;DHT22;6305;48.398;11.762;2023-05-02T06:30:47;12.20;99.90
12481;DHT22;6305;48.398;11.762;2023-05-02T06:33:22;12.40;99.90
12481;DHT22;6305;48.398;11.762;2023-05-02T06:35:50;12.50;99.90
12481;DHT22;6305;48.398;11.762;2023-05-02T06:38:17;12.70;99.90
12481;DHT22;6305;48.398;11.762;2023-05-02T06:40:44;12.80;99.90
12481;DHT22;6305;48.398;11.762;2023-05-02T06:43:13;13.00;99.90
12481;DHT22;6305;48.398;11.762;2023-05-02T06:45:40;13.10;99.90
12481;DHT22;6305;48.398;11.762;2023-05-02T06:48:07;13.30;99.90
12481;DHT22;6305;48.398;11.762;2023-05-02T06:50:35;13.30;99.90
12481;DHT22;6305;48.398;11.762;2023-05-02T06:53:03;13.50;99.90
12481;DHT22;6305;48.398;11.762;2023-05-02T06:55:30;13.90;99.90
12481;DHT22;6305;48.398;11.762;2023-05-02T06:57:57;14.00;99.90
12481;DHT22;6305;48.398;11.762;2023-05-02T07:00:26;14.50;99.90
12481;DHT22;6305;48.398;11.762;2023-05-02T07:02:53;14.90;99.90
12481;DHT22;6305;48.398;11.762;2023-05-02T07:05:21;14.90;99.90
12481;DHT22;6305;48.398;11.762;2023-05-02T07:07:48;14.80;99.90
12481;DHT22;6305;48.398;11.762;2023-05-02T07:10:14;14.90;99.90
12481;DHT22;6305;48.398;11.762;2023-05-02T07:12:41;15.10;99.90
12481;DHT22;6305;48.398;11.762;2023-05-02T07:15:09;15.20;99.90
12481;DHT22;6305;48.398;11.762;2023-05-02T07:17:37;15.50;99.90
12481;DHT22;6305;48.398;11.762;2023-05-02T07:20:05;16.00;99.90
12481;DHT22;6305;48.398;11.762;2023-05-02T07:22:32;16.20;99.90
12481;DHT22;6305;48.398;11.762;2023-05-02T07:25:01;16.30;99.90
12481;DHT22;6305;48.398;11.762;2023-05-02T07:27:28;16.10;99.90
12481;DHT22;6305;48.398;11.762;2023-05-02T07:29:55;16.10;99.90
12481;DHT22;6305;48.398;11.762;2023-05-02T07:32:22;15.90;99.90
12481;DHT22;6305;48.398;11.762;2023-05-02T07:34:52;15.70;99.90
12481;DHT22;6305;48.398;11.762;2023-05-02T07:37:20;15.60;99.90
12481;DHT22;6305;48.398;11.762;2023-05-02T07:39:47;15.50;99.90
12481;DHT22;6305;48.398;11.762;2023-05-02T07:42:14;15.50;99.90
12481;DHT22;6305;48.398;11.762;2023-05-02T07:44:41;15.40;99.90
12481;DHT22;6305;48.398;11.762;2023-05-02T07:47:08;15.70;99.90
12481;DHT22;6305;48.398;11.762;2023-05-02T07:49:35;16.00;99.90
12481;DHT22;6305;48.398;11.762;2023-05-02T07:52:04;16.40;99.90
12481;DHT22;6305;48.398;11.762;2023-05-02T07:54:31;17.20;99.90
12481;DHT22;6305;48.398;11.762;2023-05-02T07:56:58;18.00;99.90
12481;DHT22;6305;48.398;11.762;2023-05-02T07:59:28;18.40;99.90
12481;DHT22;6305;48.398;11.762;2023-05-02T08:01:55;18.20;99.90
12481;DHT22;6305;48.398;11.762;2023-05-02T08:04:22;18.10;99.90
12481;DHT22;6305;48.398;11.762;2023-05-02T08:06:49;18.20;99.90
12481;DHT22;6305;48.398;11.762;2023-05-02T08:09:17;17.90;99.90
12481;DHT22;6305;48.398;11.762;2023-05-02T08:11:44;17.90;99.90
12481;DHT22;6305;48.398;11.762;2023-05-02T08:14:11;18.00;99.90
12481;DHT22;6305;48.398;11.762;2023-05-02T08:16:38;18.20;99.90
12481;DHT22;6305;48.398;11.762;2023-05-02T08:19:05;18.40;99.90
12481;DHT22;6305;48.398;11.762;2023-05-02T08:21:32;18.50;99.90
12481;DHT22;6305;48.398;11.762;2023-05-02T08:23:59;18.70;99.90
12481;DHT22;6305;48.398;11.762;2023-05-02T08:26:28;18.50;99.20
12481;DHT22;6305;48.398;11.762;2023-05-02T08:28:55;18.50;99.90
12481;DHT22;6305;48.398;11.762;2023-05-02T08:31:22;18.60;99.90
12481;DHT22;6305;48.398;11.762;2023-05-02T08:33:49;18.70;99.90
12481;DHT22;6305;48.398;11.762;2023-05-02T08:36:17;18.70;98.10
12481;DHT22;6305;48.398;11.762;2023-05-02T08:38:45;18.60;98.90
12481;DHT22;6305;48.398;11.762;2023-05-02T08:41:13;18.60;99.90
12481;DHT22;6305;48.398;11.762;2023-05-02T08:43:43;18.80;99.90
12481;DHT22;6305;48.398;11.762;2023-05-02T08:46:12;18.50;96.70
12481;DHT22;6305;48.398;11.762;2023-05-02T08:48:41;18.60;99.10
12481;DHT22;6305;48.398;11.762;2023-05-02T08:51:10;18.70;96.70
12481;DHT22;6305;48.398;11.762;2023-05-02T08:53:38;18.60;97.50
12481;DHT22;6305;48.398;11.762;2023-05-02T08:56:06;18.80;96.60
12481;DHT22;6305;48.398;11.762;2023-05-02T08:58:34;18.80;95.90
12481;DHT22;6305;48.398;11.762;2023-05-02T09:01:08;18.60;95.40
12481;DHT22;6305;48.398;11.762;2023-05-02T09:03:35;18.40;96.50
12481;DHT22;6305;48.398;11.762;2023-05-02T09:06:05;18.20;98.00
12481;DHT22;6305;48.398;11.762;2023-05-02T09:08:32;18.10;97.40
12481;DHT22;6305;48.398;11.762;2023-05-02T09:11:00;18.00;97.80
12481;DHT22;6305;48.398;11.762;2023-05-02T09:13:33;17.70;98.90
12481;DHT22;6305;48.398;11.762;2023-05-02T09:16:03;17.40;99.90
12481;DHT22;6305;48.398;11.762;2023-05-02T09:18:33;17.20;99.90
12481;DHT22;6305;48.398;11.762;2023-05-02T09:21:04;16.90;99.90
12481;DHT22;6305;48.398;11.762;2023-05-02T09:23:38;16.50;99.90
12481;DHT22;6305;48.398;11.762;2023-05-02T09:26:10;16.50;99.90
12481;DHT22;6305;48.398;11.762;2023-05-02T09:28:39;16.50;99.90
12481;DHT22;6305;48.398;11.762;2023-05-02T09:31:09;16.50;99.90
12481;DHT22;6305;48.398;11.762;2023-05-02T09:33:37;16.70;99.90
12481;DHT22;6305;48.398;11.762;2023-05-02T09:36:05;16.70;99.90
12481;DHT22;6305;48.398;11.762;2023-05-02T09:38:32;16.70;99.90
12481;DHT22;6305;48.398;11.762;2023-05-02T09:41:00;16.80;99.90
12481;DHT22;6305;48.398;11.762;2023-05-02T09:43:28;17.10;99.90
12481;DHT22;6305;48.398;11.762;2023-05-02T09:45:57;17.30;99.90
12481;DHT22;6305;48.398;11.762;2023-05-02T09:48:27;17.40;99.90
12481;DHT22;6305;48.398;11.762;2023-05-02T09:50:55;17.40;99.90
12481;DHT22;6305;48.398;11.762;2023-05-02T09:53:24;17.50;99.90
12481;DHT22;6305;48.398;11.762;2023-05-02T09:56:02;17.50;99.90
12481;DHT22;6305;48.398;11.762;2023-05-02T09:58:29;17.70;99.90
12481;DHT22;6305;48.398;11.762;2023-05-02T10:00:57;17.90;99.90
12481;DHT22;6305;48.398;11.762;2023-05-02T10:03:26;18.00;99.90
12481;DHT22;6305;48.398;11.762;2023-05-02T10:05:54;18.10;99.10
12481;DHT22;6305;48.398;11.762;2023-05-02T10:08:24;18.20;96.60
12481;DHT22;6305;48.398;11.762;2023-05-02T10:10:53;18.00;96.60
12481;DHT22;6305;48.398;11.762;2023-05-02T10:13:22;17.70;98.80
12481;DHT22;6305;48.398;11.762;2023-05-02T10:15:55;17.70;99.90
12481;DHT22;6305;48.398;11.762;2023-05-02T10:18:28;17.40;99.90
12481;DHT22;6305;48.398;11.762;2023-05-02T10:21:04;17.10;99.90
12481;DHT22;6305;48.398;11.762;2023-05-02T10:23:32;16.90;99.90
12481;DHT22;6305;48.398;11.762;2023-05-02T10:26:00;16.60;99.90
12481;DHT22;6305;48.398;11.762;2023-05-02T10:28:29;16.50;99.90
12481;DHT22;6305;48.398;11.762;2023-05-02T10:30:57;16.20;99.90
12481;DHT22;6305;48.398;11.762;2023-05-02T10:33:27;16.00;99.90
12481;DHT22;6305;48.398;11.762;2023-05-02T10:35:56;15.90;99.90
12481;DHT22;6305;48.398;11.762;2023-05-02T10:38:23;15.80;99.90
12481;DHT22;6305;48.398;11.762;2023-05-02T10:40:53;15.60;99.90
12481;DHT22;6305;48.398;11.762;2023-05-02T10:43:27;15.50;99.90
12481;DHT22;6305;48.398;11.762;2023-05-02T10:45:54;15.30;99.90
12481;DHT22;6305;48.398;11.762;2023-05-02T10:48:22;15.30;99.90
12481;DHT22;6305;48.398;11.762;2023-05-02T10:50:55;15.40;99.90
12481;DHT22;6305;48.398;11.762;2023-05-02T10:53:24;15.60;99.90
12481;DHT22;6305;48.398;11.762;2023-05-02T10:56:17;15.70;99.90
12481;DHT22;6305;48.398;11.762;2023-05-02T10:58:47;15.90;99.90
12481;DHT22;6305;48.398;11.762;2023-05-02T11:01:32;16.20;99.90
12481;DHT22;6305;48.398;11.762;2023-05-02T11:04:02;16.60;99.90
12481;DHT22;6305;48.398;11.762;2023-05-02T11:06:31;17.00;99.90
12481;DHT22;6305;48.398;11.762;2023-05-02T11:09:31;17.50;99.90
12481;DHT22;6305;48.398;11.762;2023-05-02T11:12:02;17.80;99.90
12481;DHT22;6305;48.398;11.762;2023-05-02T11:14:43;18.10;99.90
12481;DHT22;6305;48.398;11.762;2023-05-02T11:17:13;18.50;97.60
12481;DHT22;6305;48.398;11.762;2023-05-02T11:22:57;19.00;94.10
12481;DHT22;6305;48.398;11.762;2023-05-02T11:25:32;19.50;92.90
12481;DHT22;6305;48.398;11.762;2023-05-02T11:28:00;20.00;91.10
12481;DHT22;6305;48.398;11.762;2023-05-02T11:30:39;20.40;87.70
12481;DHT22;6305;48.398;11.762;2023-05-02T11:33:16;20.80;84.40
12481;DHT22;6305;48.398;11.762;2023-05-02T11:35:48;21.20;80.90
12481;DHT22;6305;48.398;11.762;2023-05-02T11:38:19;21.40;77.50
12481;DHT22;6305;48.398;11.762;2023-05-02T11:40:55;21.70;75.20
12481;DHT22;6305;48.398;11.762;2023-05-02T11:43:23;22.00;73.30
12481;DHT22;6305;48.398;11.762;2023-05-02T11:45:52;22.40;70.20
12481;DHT22;6305;48.398;11.762;2023-05-02T11:48:20;22.60;67.10
12481;DHT22;6305;48.398;11.762;2023-05-02T11:50:49;22.70;65.90
12481;DHT22;6305;48.398;11.762;2023-05-02T11:53:19;23.00;65.60
12481;DHT22;6305;48.398;11.762;2023-05-02T11:55:50;24.00;64.80
12481;DHT22;6305;48.398;11.762;2023-05-02T11:58:20;25.70;59.60
12481;DHT22;6305;48.398;11.762;2023-05-02T12:00:48;27.60;55.30
12481;DHT22;6305;48.398;11.762;2023-05-02T12:03:23;28.90;49.60
12481;DHT22;6305;48.398;11.762;2023-05-02T12:05:50;29.90;46.30
12481;DHT22;6305;48.398;11.762;2023-05-02T12:08:23;30.60;44.30
12481;DHT22;6305;48.398;11.762;2023-05-02T12:10:52;31.00;41.90
12481;DHT22;6305;48.398;11.762;2023-05-02T12:13:22;30.30;40.20
12481;DHT22;6305;48.398;11.762;2023-05-02T12:15:50;30.70;41.00
12481;DHT22;6305;48.398;11.762;2023-05-02T12:18:18;30.60;39.20
12481;DHT22;6305;48.398;11.762;2023-05-02T12:20:48;30.40;38.80
12481;DHT22;6305;48.398;11.762;2023-05-02T12:23:16;30.00;39.10
12481;DHT22;6305;48.398;11.762;2023-05-02T12:25:44;28.70;39.70
12481;DHT22;6305;48.398;11.762;2023-05-02T12:28:11;27.10;41.80
12481;DHT22;6305;48.398;11.762;2023-05-02T12:30:38;25.70;44.20
12481;DHT22;6305;48.398;11.762;2023-05-02T12:33:06;24.60;46.10
12481;DHT22;6305;48.398;11.762;2023-05-02T12:35:34;24.00;48.60
12481;DHT22;6305;48.398;11.762;2023-05-02T12:38:10;23.10;49.90
12481;DHT22;6305;48.398;11.762;2023-05-02T12:40:38;23.00;51.90
12481;DHT22;6305;48.398;11.762;2023-05-02T12:43:07;22.60;51.60
12481;DHT22;6305;48.398;11.762;2023-05-02T12:45:36;21.60;52.50
12481;DHT22;6305;48.398;11.762;2023-05-02T12:48:20;20.10;52.70
12481;DHT22;6305;48.398;11.762;2023-05-02T12:50:47;18.70;55.90
12481;DHT22;6305;48.398;11.762;2023-05-02T12:53:14;17.70;57.80
12481;DHT22;6305;48.398;11.762;2023-05-02T12:55:42;16.80;59.90
12481;DHT22;6305;48.398;11.762;2023-05-02T12:58:11;16.00;65.60
12481;DHT22;6305;48.398;11.762;2023-05-02T13:00:40;14.90;84.10
12481;DHT22;6305;48.398;11.762;2023-05-02T13:03:08;13.50;99.90
12481;DHT22;6305;48.398;11.762;2023-05-02T13:05:36;12.20;99.90
12481;DHT22;6305;48.398;11.762;2023-05-02T13:08:03;11.50;99.90
12481;DHT22;6305;48.398;11.762;2023-05-02T13:10:30;10.90;99.90
12481;DHT22;6305;48.398;11.762;2023-05-02T13:12:57;10.50;99.90
12481;DHT22;6305;48.398;11.762;2023-05-02T13:15:26;10.30;99.90
12481;DHT22;6305;48.398;11.762;2023-05-02T13:17:53;10.20;99.90
12481;DHT22;6305;48.398;11.762;2023-05-02T13:20:20;10.30;99.90
12481;DHT22;6305;48.398;11.762;2023-05-02T13:22:47;10.20;99.90
12481;DHT22;6305;48.398;11.762;2023-05-02T13:25:14;10.20;99.90
12481;DHT22;6305;48.398;11.762;2023-05-02T13:27:41;10.20;99.90
12481;DHT22;6305;48.398;11.762;2023-05-02T13:30:08;10.30;99.90
12481;DHT22;6305;48.398;11.762;2023-05-02T13:32:37;10.60;99.90
12481;DHT22;6305;48.398;11.762;2023-05-02T13:35:06;10.90;99.90
12481;DHT22;6305;48.398;11.762;2023-05-02T13:37:33;11.10;99.90
12481;DHT22;6305;48.398;11.762;2023-05-02T13:40:00;11.20;99.90
12481;DHT22;6305;48.398;11.762;2023-05-02T13:42:27;11.20;99.90
12481;DHT22;6305;48.398;11.762;2023-05-02T13:44:54;11.10;99.90
12481;DHT22;6305;48.398;11.762;2023-05-02T13:47:21;11.10;99.90
12481;DHT22;6305;48.398;11.762;2023-05-02T13:49:50;11.10;99.90
12481;DHT22;6305;48.398;11.762;2023-05-02T13:52:17;11.10;99.90
12481;DHT22;6305;48.398;11.762;2023-05-02T13:54:44;11.20;99.90
12481;DHT22;6305;48.398;11.762;2023-05-02T13:57:11;11.20;99.90
12481;DHT22;6305;48.398;11.762;2023-05-02T13:59:38;11.30;99.90
12481;DHT22;6305;48.398;11.762;2023-05-02T14:02:06;11.30;99.90
12481;DHT22;6305;48.398;11.762;2023-05-02T14:04:33;11.40;99.90
12481;DHT22;6305;48.398;11.762;2023-05-02T14:07:02;11.40;99.90
12481;DHT22;6305;48.398;11.762;2023-05-02T14:09:29;11.50;99.90
12481;DHT22;6305;48.398;11.762;2023-05-02T14:11:56;11.60;99.90
12481;DHT22;6305;48.398;11.762;2023-05-02T14:14:23;11.70;99.90
12481;DHT22;6305;48.398;11.762;2023-05-02T14:16:51;11.60;99.90
12481;DHT22;6305;48.398;11.762;2023-05-02T14:19:18;11.60;99.90
12481;DHT22;6305;48.398;11.762;2023-05-02T14:21:45;11.60;99.90
12481;DHT22;6305;48.398;11.762;2023-05-02T14:24:14;11.70;99.90
12481;DHT22;6305;48.398;11.762;2023-05-02T14:26:41;11.90;99.90
12481;DHT22;6305;48.398;11.762;2023-05-02T14:29:08;12.00;99.90
12481;DHT22;6305;48.398;11.762;2023-05-02T14:31:35;12.10;99.90
12481;DHT22;6305;48.398;11.762;2023-05-02T14:34:02;12.30;99.90
12481;DHT22;6305;48.398;11.762;2023-05-02T14:36:29;12.60;99.90
12481;DHT22;6305;48.398;11.762;2023-05-02T14:38:56;13.00;99.90
12481;DHT22;6305;48.398;11.762;2023-05-02T14:41:25;13.20;99.90
12481;DHT22;6305;48.398;11.762;2023-05-02T14:43:52;13.40;99.90
12481;DHT22;6305;48.398;11.762;2023-05-02T14:46:19;13.60;99.90
12481;DHT22;6305;48.398;11.762;2023-05-02T14:48:46;13.90;99.90
12481;DHT22;6305;48.398;11.762;2023-05-02T14:51:13;14.20;99.90
12481;DHT22;6305;48.398;11.762;2023-05-02T14:53:41;14.40;99.90
12481;DHT22;6305;48.398;11.762;2023-05-02T14:56:11;14.80;99.90
12481;DHT22;6305;48.398;11.762;2023-05-02T14:58:41;15.30;99.90
12481;DHT22;6305;48.398;11.762;2023-05-02T15:01:14;15.90;99.90
12481;DHT22;6305;48.398;11.762;2023-05-02T15:03:42;16.40;99.90
12481;DHT22;6305;48.398;11.762;2023-05-02T15:06:10;16.70;99.90
12481;DHT22;6305;48.398;11.762;2023-05-02T15:08:37;17.60;99.90
12481;DHT22;6305;48.398;11.762;2023-05-02T15:11:05;18.60;99.90
12481;DHT22;6305;48.398;11.762;2023-05-02T15:13:32;19.50;99.90
12481;DHT22;6305;48.398;11.762;2023-05-02T15:16:00;19.20;99.90
12481;DHT22;6305;48.398;11.762;2023-05-02T15:18:28;18.60;99.90
12481;DHT22;6305;48.398;11.762;2023-05-02T15:20:55;18.30;99.90
12481;DHT22;6305;48.398;11.762;2023-05-02T15:23:22;18.20;99.90
12481;DHT22;6305;48.398;11.762;2023-05-02T15:25:49;18.90;99.90
12481;DHT22;6305;48.398;11.762;2023-05-02T15:28:16;19.70;99.90
12481;DHT22;6305;48.398;11.762;2023-05-02T15:30:43;19.70;99.90
12481;DHT22;6305;48.398;11.762;2023-05-02T15:33:11;19.10;99.20
12481;DHT22;6305;48.398;11.762;2023-05-02T15:35:38;18.50;97.30
12481;DHT22;6305;48.398;11.762;2023-05-02T15:38:05;17.90;97.20
12481;DHT22;6305;48.398;11.762;2023-05-02T15:40:33;17.50;98.20
12481;DHT22;6305;48.398;11.762;2023-05-02T15:43:01;16.90;98.80
12481;DHT22;6305;48.398;11.762;2023-05-02T15:45:28;16.60;99.90
12481;DHT22;6305;48.398;11.762;2023-05-02T15:47:55;16.30;99.90
12481;DHT22;6305;48.398;11.762;2023-05-02T15:50:23;16.10;99.90
12481;DHT22;6305;48.398;11.762;2023-05-02T15:52:50;15.80;99.90